Time;durP1;ratioP1;P1;durP2;ratioP2;P2;SDS_P1;SDS_P2;PMS_P1;PMS_P2;Temp;Humidity;BMP_temperature;BMP_pressure;BME280_temperature;BME280_humidity;BME280_pressure;Samples;Min_cycle;Max_cycle;Signal;HPM_P1;HPM_P2
2023/08/24 00:00:27;;;;;;;4.97;4.30;;;;;;;;;;5091972;28;20305;-79
2023/08/24 00:02:54;;;;;;;5.63;4.43;;;;;;;;;;5091995;28;20218;-79
2023/08/24 00:05:21;;;;;;;4.97;4.50;;;;;;;;;;5092513;28;20289;-80
2023/08/24 00:07:49;;;;;;;6.63;4.70;;;;;;;;;;5092042;28;20302;-79
2023/08/24 00:10:16;;;;;;;6.68;4.28;;;;;;;;;;5091927;28;20275;-79
2023/08/24 00:12:43;;;;;;;7.95;4.60;;;;;;;;;;5091822;28;20285;-79
2023/08/24 00:15:12;;;;;;;7.00;4.95;;;;;;;;;;5091712;28;20222;-79
2023/08/24 00:17:39;;;;;;;7.22;4.70;;;;;;;;;;5091949;28;20329;-80
2023/08/24 00:20:10;;;;;;;7.20;4.72;;;;;;;;;;5092118;28;20195;-79
2023/08/24 00:22:37;;;;;;;6.30;4.43;;;;;;;;;;5091846;28;20199;-80
2023/08/24 00:25:05;;;;;;;5.30;4.30;;;;;;;;;;5092095;28;20696;-78
2023/08/24 00:27:32;;;;;;;7.95;4.90;;;;;;;;;;5092108;28;20203;-79
2023/08/24 00:30:00;;;;;;;5.70;4.85;;;;;;;;;;5091347;28;20696;-79
2023/08/24 00:32:28;;;;;;;7.30;5.20;;;;;;;;;;5091788;28;20202;-79
2023/08/24 00:34:55;;;;;;;12.35;5.10;;;;;;;;;;5091710;28;20233;-78
2023/08/24 00:37:23;;;;;;;7.75;4.65;;;;;;;;;;5091638;28;20229;-79
2023/08/24 00:39:50;;;;;;;7.35;5.15;;;;;;;;;;5091617;28;20237;-80
2023/08/24 00:42:18;;;;;;;5.97;4.60;;;;;;;;;;5091330;28;20744;-80
2023/08/24 00:44:45;;;;;;;6.57;5.22;;;;;;;;;;5091287;28;20767;-79
2023/08/24 00:47:12;;;;;;;5.40;4.90;;;;;;;;;;5091593;28;20251;-78
2023/08/24 00:49:41;;;;;;;5.47;4.78;;;;;;;;;;5091135;28;20230;-79
2023/08/24 00:52:08;;;;;;;7.45;4.85;;;;;;;;;;5091166;28;20202;-79
2023/08/24 00:54:36;;;;;;;6.78;4.88;;;;;;;;;;5091560;28;20332;-79
2023/08/24 00:57:03;;;;;;;6.57;4.85;;;;;;;;;;5091430;28;20294;-78
2023/08/24 00:59:30;;;;;;;8.77;4.95;;;;;;;;;;5090943;28;20225;-80
2023/08/24 01:01:58;;;;;;;5.50;4.70;;;;;;;;;;5091278;28;20253;-80
2023/08/24 01:04:25;;;;;;;5.85;4.85;;;;;;;;;;5091465;28;20274;-79
2023/08/24 01:06:53;;;;;;;7.47;4.75;;;;;;;;;;5091336;28;20190;-80
2023/08/24 01:09:21;;;;;;;6.63;4.60;;;;;;;;;;5091533;28;20750;-78
2023/08/24 01:11:55;;;;;;;7.10;5.30;;;;;;;;;;5091272;28;20214;-79
2023/08/24 01:14:29;;;;;;;9.20;4.72;;;;;;;;;;5090153;28;20259;-80
2023/08/24 01:16:59;;;;;;;8.00;5.50;;;;;;;;;;5085765;28;20203;-80
2023/08/24 01:19:33;;;;;;;7.43;4.93;;;;;;;;;;5071189;28;20620;-80
2023/08/24 01:22:03;;;;;;;7.50;5.65;;;;;;;;;;5071286;28;20284;-79
2023/08/24 01:24:38;;;;;;;9.10;5.68;;;;;;;;;;5071237;28;20206;-78
2023/08/24 01:27:06;;;;;;;8.27;6.07;;;;;;;;;;5070797;28;20740;-79
2023/08/24 01:29:34;;;;;;;8.80;5.88;;;;;;;;;;5071498;28;20683;-80
2023/08/24 01:32:02;;;;;;;6.40;5.80;;;;;;;;;;5073088;28;20218;-79
2023/08/24 01:34:30;;;;;;;8.60;6.20;;;;;;;;;;5079890;28;20656;-80
2023/08/24 01:36:57;;;;;;;6.45;5.85;;;;;;;;;;5070958;28;20226;-79
2023/08/24 01:39:30;;;;;;;8.57;5.40;;;;;;;;;;5070718;28;20203;-79
2023/08/24 01:41:58;;;;;;;9.57;5.93;;;;;;;;;;5070711;28;20227;-80
2023/08/24 01:44:28;;;;;;;6.20;5.50;;;;;;;;;;5070904;28;20659;-80
2023/08/24 01:46:56;;;;;;;6.40;5.40;;;;;;;;;;5070792;28;20199;-80
2023/08/24 01:49:24;;;;;;;7.35;5.30;;;;;;;;;;5071040;28;20332;-79
2023/08/24 01:51:51;;;;;;;7.05;5.15;;;;;;;;;;5070732;28;20199;-80
2023/08/24 01:54:18;;;;;;;7.35;5.35;;;;;;;;;;5070444;28;20735;-80
2023/08/24 01:56:46;;;;;;;6.63;5.00;;;;;;;;;;5070929;28;20252;-79
2023/08/24 01:59:14;;;;;;;7.28;6.18;;;;;;;;;;5070456;28;20277;-79
2023/08/24 02:01:42;;;;;;;7.45;5.40;;;;;;;;;;5070555;28;20234;-79
2023/08/24 02:04:09;;;;;;;6.18;5.57;;;;;;;;;;5072264;28;20237;-80
2023/08/24 02:06:36;;;;;;;7.10;5.28;;;;;;;;;;5074376;28;20729;-79
2023/08/24 02:09:04;;;;;;;6.40;5.80;;;;;;;;;;5074514;28;20679;-79
2023/08/24 02:11:31;;;;;;;9.45;5.45;;;;;;;;;;5073754;28;20191;-79
2023/08/24 02:13:59;;;;;;;7.90;6.18;;;;;;;;;;5074116;28;20286;-80
2023/08/24 02:16:26;;;;;;;7.63;5.72;;;;;;;;;;5075815;28;20302;-79
2023/08/24 02:18:54;;;;;;;6.28;5.68;;;;;;;;;;5094201;28;20282;-79
2023/08/24 02:21:21;;;;;;;8.60;5.78;;;;;;;;;;5094058;28;20324;-80
2023/08/24 02:23:49;;;;;;;8.70;5.63;;;;;;;;;;5094278;28;20285;-80
2023/08/24 02:26:16;;;;;;;8.65;5.43;;;;;;;;;;5094269;28;20285;-79
2023/08/24 02:28:43;;;;;;;6.75;5.65;;;;;;;;;;5093992;28;20281;-79
2023/08/24 02:31:10;;;;;;;10.60;5.97;;;;;;;;;;5093713;28;20214;-79
2023/08/24 02:33:37;;;;;;;7.60;5.95;;;;;;;;;;5093905;28;20198;-80
2023/08/24 02:36:06;;;;;;;6.55;5.90;;;;;;;;;;5094349;28;20190;-79
2023/08/24 02:38:33;;;;;;;6.90;5.65;;;;;;;;;;5094050;28;20271;-78
2023/08/24 02:41:03;;;;;;;6.03;5.43;;;;;;;;;;5093370;28;20595;-80
2023/08/24 02:43:31;;;;;;;7.20;5.63;;;;;;;;;;5093720;28;20285;-79
2023/08/24 02:46:01;;;;;;;5.70;5.20;;;;;;;;;;5093307;28;20222;-80
2023/08/24 02:48:28;;;;;;;8.10;5.07;;;;;;;;;;5093832;28;20201;-79
2023/08/24 02:50:56;;;;;;;7.15;5.63;;;;;;;;;;5093868;28;20651;-79
2023/08/24 02:53:24;;;;;;;5.53;5.03;;;;;;;;;;5093205;28;20242;-79
2023/08/24 02:55:53;;;;;;;7.65;5.50;;;;;;;;;;5093323;28;20315;-80
2023/08/24 02:58:20;;;;;;;8.65;5.22;;;;;;;;;;5093942;28;20198;-80
2023/08/24 03:00:47;;;;;;;7.30;5.40;;;;;;;;;;5093632;28;20203;-79
2023/08/24 03:03:15;;;;;;;6.45;5.43;;;;;;;;;;5093321;28;20203;-79
2023/08/24 03:05:42;;;;;;;7.80;5.45;;;;;;;;;;5093261;28;20201;-79
2023/08/24 03:08:10;;;;;;;6.20;5.60;;;;;;;;;;5093026;28;20289;-80
2023/08/24 03:10:38;;;;;;;6.60;5.15;;;;;;;;;;5092632;28;20251;-80
2023/08/24 03:13:05;;;;;;;9.85;5.47;;;;;;;;;;5093290;28;20285;-79
2023/08/24 03:15:32;;;;;;;7.20;5.55;;;;;;;;;;5092837;28;20305;-80
2023/08/24 03:18:00;;;;;;;8.05;5.50;;;;;;;;;;5092946;28;20234;-79
2023/08/24 03:20:27;;;;;;;7.05;5.65;;;;;;;;;;5093564;28;20221;-79
2023/08/24 03:22:54;;;;;;;6.22;5.25;;;;;;;;;;5093011;28;20258;-79
2023/08/24 03:25:21;;;;;;;6.90;5.38;;;;;;;;;;5092575;28;20296;-79
2023/08/24 03:27:50;;;;;;;8.27;5.30;;;;;;;;;;5092927;28;20199;-80
2023/08/24 03:30:18;;;;;;;6.05;5.20;;;;;;;;;;5093117;28;20230;-80
2023/08/24 03:32:45;;;;;;;7.50;4.97;;;;;;;;;;5092387;28;20286;-79
2023/08/24 03:35:13;;;;;;;6.95;5.20;;;;;;;;;;5093058;28;20305;-80
2023/08/24 03:37:40;;;;;;;7.80;4.75;;;;;;;;;;5092109;28;20226;-79
2023/08/24 03:40:08;;;;;;;5.15;4.63;;;;;;;;;;5092543;28;20281;-77
2023/08/24 03:42:35;;;;;;;8.25;4.78;;;;;;;;;;5092867;28;20237;-79
2023/08/24 03:45:04;;;;;;;5.85;4.72;;;;;;;;;;5092493;28;20198;-80
2023/08/24 03:47:32;;;;;;;5.63;4.72;;;;;;;;;;5092625;28;20203;-79
2023/08/24 03:49:59;;;;;;;5.82;4.70;;;;;;;;;;5092547;28;20240;-79
2023/08/24 03:52:27;;;;;;;6.28;4.53;;;;;;;;;;5090899;28;20251;-80
2023/08/24 03:54:54;;;;;;;6.82;4.75;;;;;;;;;;5092271;28;20309;-79
2023/08/24 03:57:21;;;;;;;6.65;4.90;;;;;;;;;;5092241;28;20222;-79
2023/08/24 03:59:48;;;;;;;8.40;4.93;;;;;;;;;;5092573;28;20222;-79
2023/08/24 04:02:17;;;;;;;6.88;5.25;;;;;;;;;;5092289;28;20317;-79
2023/08/24 04:04:45;;;;;;;7.57;4.78;;;;;;;;;;5092046;28;20230;-78
2023/08/24 04:07:12;;;;;;;6.68;5.03;;;;;;;;;;5091472;28;20233;-79
2023/08/24 04:09:39;;;;;;;6.97;5.40;;;;;;;;;;5092227;28;20251;-79
2023/08/24 04:12:06;;;;;;;7.78;5.60;;;;;;;;;;5092404;28;20222;-79
2023/08/24 04:14:34;;;;;;;7.60;5.28;;;;;;;;;;5091801;28;20194;-79
2023/08/24 04:17:01;;;;;;;6.93;5.10;;;;;;;;;;5091725;28;20247;-80
2023/08/24 04:19:29;;;;;;;8.15;4.90;;;;;;;;;;5091803;28;20225;-79
2023/08/24 04:21:57;;;;;;;6.05;5.20;;;;;;;;;;5092106;28;20226;-79
2023/08/24 04:24:25;;;;;;;9.73;5.63;;;;;;;;;;5092136;28;20285;-79
2023/08/24 04:26:52;;;;;;;10.63;5.80;;;;;;;;;;5091209;28;20190;-79
2023/08/24 04:29:20;;;;;;;9.43;6.07;;;;;;;;;;5092142;28;20221;-79
2023/08/24 04:31:47;;;;;;;10.13;6.22;;;;;;;;;;5092031;28;20682;-79
2023/08/24 04:34:14;;;;;;;6.70;5.97;;;;;;;;;;5091872;28;20288;-79
2023/08/24 04:36:43;;;;;;;10.40;6.20;;;;;;;;;;5091480;28;20277;-79
2023/08/24 04:39:11;;;;;;;9.93;5.50;;;;;;;;;;5091684;28;20238;-80
2023/08/24 04:41:38;;;;;;;10.80;6.10;;;;;;;;;;5091333;28;20222;-79
2023/08/24 04:44:07;;;;;;;8.05;5.63;;;;;;;;;;5091633;28;20691;-79
2023/08/24 04:46:35;;;;;;;10.18;5.78;;;;;;;;;;5091633;28;20256;-79
2023/08/24 04:49:03;;;;;;;6.72;6.03;;;;;;;;;;5091426;28;20301;-79
2023/08/24 04:51:30;;;;;;;9.45;5.78;;;;;;;;;;5090840;28;20201;-79
2023/08/24 04:53:59;;;;;;;8.38;5.32;;;;;;;;;;5091268;28;20269;-79
2023/08/24 04:56:26;;;;;;;11.93;6.25;;;;;;;;;;5091218;28;20290;-79
2023/08/24 04:58:54;;;;;;;9.15;6.10;;;;;;;;;;5091235;28;20640;-79
2023/08/24 05:01:22;;;;;;;9.70;5.45;;;;;;;;;;5092146;28;20194;-79
2023/08/24 05:03:49;;;;;;;9.60;5.40;;;;;;;;;;5091263;28;20229;-79
2023/08/24 05:06:16;;;;;;;6.80;5.60;;;;;;;;;;5090993;28;20289;-79
2023/08/24 05:08:43;;;;;;;7.55;5.80;;;;;;;;;;5091097;28;20233;-79
2023/08/24 05:11:15;;;;;;;7.75;5.82;;;;;;;;;;5091467;28;20244;-78
2023/08/24 05:13:43;;;;;;;12.50;6.30;;;;;;;;;;5091565;28;20226;-78
2023/08/24 05:16:10;;;;;;;6.80;5.90;;;;;;;;;;5091234;28;20194;-79
2023/08/24 05:18:38;;;;;;;8.52;5.80;;;;;;;;;;5091572;28;20266;-79
2023/08/24 05:21:05;;;;;;;12.57;6.15;;;;;;;;;;5091251;28;20285;-78
2023/08/24 05:23:33;;;;;;;7.95;5.45;;;;;;;;;;5091059;28;20587;-78
2023/08/24 05:26:00;;;;;;;10.82;6.28;;;;;;;;;;5090989;28;20285;-79
2023/08/24 05:28:29;;;;;;;10.00;6.03;;;;;;;;;;5090805;28;20233;-79
2023/08/24 05:30:57;;;;;;;8.20;5.80;;;;;;;;;;5090863;28;20201;-78
2023/08/24 05:33:25;;;;;;;9.88;6.07;;;;;;;;;;5091057;28;20198;-79
2023/08/24 05:35:52;;;;;;;7.05;5.80;;;;;;;;;;5090936;28;20218;-79
2023/08/24 05:38:20;;;;;;;9.73;5.75;;;;;;;;;;5091213;28;20694;-78
2023/08/24 05:40:48;;;;;;;6.97;5.63;;;;;;;;;;5094893;28;20222;-78
2023/08/24 05:43:15;;;;;;;8.02;5.57;;;;;;;;;;5094888;28;20265;-79
2023/08/24 05:45:44;;;;;;;6.75;5.30;;;;;;;;;;5094831;28;20587;-79
2023/08/24 05:48:12;;;;;;;8.10;5.35;;;;;;;;;;5095100;28;20199;-80
2023/08/24 05:50:43;;;;;;;10.95;5.50;;;;;;;;;;5094799;28;20194;-79
2023/08/24 05:53:11;;;;;;;8.80;5.35;;;;;;;;;;5075612;28;20268;-79
2023/08/24 05:55:38;;;;;;;7.78;5.45;;;;;;;;;;5074403;28;20195;-79
2023/08/24 05:58:05;;;;;;;8.02;5.05;;;;;;;;;;5074861;28;20290;-80
2023/08/24 06:00:32;;;;;;;5.80;5.13;;;;;;;;;;5074569;28;20195;-80
2023/08/24 06:03:01;;;;;;;6.32;4.88;;;;;;;;;;5073953;28;20348;-80
2023/08/24 06:05:28;;;;;;;6.82;5.10;;;;;;;;;;5074145;28;20227;-80
2023/08/24 06:07:55;;;;;;;5.75;5.00;;;;;;;;;;5074572;28;20286;-80
2023/08/24 06:10:23;;;;;;;8.02;5.28;;;;;;;;;;5074035;28;20245;-79
2023/08/24 06:12:50;;;;;;;9.20;4.90;;;;;;;;;;5074166;28;20203;-79
2023/08/24 06:15:19;;;;;;;5.80;4.55;;;;;;;;;;5078072;28;20297;-80
2023/08/24 06:17:47;;;;;;;5.80;4.57;;;;;;;;;;5089396;28;20206;-77
2023/08/24 06:20:16;;;;;;;5.97;4.30;;;;;;;;;;5086104;28;20594;-76
2023/08/24 06:22:43;;;;;;;8.00;4.32;;;;;;;;;;5089997;28;20226;-78
2023/08/24 06:25:10;;;;;;;6.38;4.20;;;;;;;;;;5088130;28;20205;-78
2023/08/24 06:27:37;;;;;;;6.55;3.95;;;;;;;;;;5093697;28;20228;-77
2023/08/24 06:30:05;;;;;;;4.40;3.78;;;;;;;;;;5093944;28;20663;-78
2023/08/24 06:32:32;;;;;;;6.40;3.78;;;;;;;;;;5093894;28;20198;-77
2023/08/24 06:35:00;;;;;;;6.95;3.97;;;;;;;;;;5093436;28;20234;-78
2023/08/24 06:37:28;;;;;;;5.00;4.18;;;;;;;;;;5093234;28;20198;-79
2023/08/24 06:39:56;;;;;;;4.97;4.18;;;;;;;;;;5093738;28;20286;-79
2023/08/24 06:42:23;;;;;;;4.78;3.80;;;;;;;;;;5093597;28;20317;-79
2023/08/24 06:44:50;;;;;;;7.03;3.80;;;;;;;;;;5093562;28;20197;-80
2023/08/24 06:47:18;;;;;;;4.68;3.97;;;;;;;;;;5092868;28;20673;-79
2023/08/24 06:49:45;;;;;;;6.18;4.15;;;;;;;;;;5093156;28;20230;-78
2023/08/24 06:52:12;;;;;;;5.25;4.00;;;;;;;;;;5093171;28;20281;-78
2023/08/24 06:54:40;;;;;;;6.78;3.90;;;;;;;;;;5093208;28;20258;-80
2023/08/24 06:57:08;;;;;;;5.68;3.90;;;;;;;;;;5093106;28;20678;-78
2023/08/24 06:59:35;;;;;;;6.30;4.15;;;;;;;;;;5092900;28;20285;-79
2023/08/24 07:02:04;;;;;;;5.32;3.90;;;;;;;;;;5092847;28;20205;-79
2023/08/24 07:04:31;;;;;;;5.80;4.50;;;;;;;;;;5093048;28;20198;-77
2023/08/24 07:06:58;;;;;;;4.25;3.85;;;;;;;;;;5092910;28;20198;-78
2023/08/24 07:09:27;;;;;;;5.75;4.03;;;;;;;;;;5092936;28;20278;-78
2023/08/24 07:11:56;;;;;;;6.82;4.20;;;;;;;;;;5093041;28;20202;-78
2023/08/24 07:14:23;;;;;;;6.78;4.63;;;;;;;;;;5092139;28;20679;-78
2023/08/24 07:16:50;;;;;;;5.57;3.80;;;;;;;;;;5092031;28;20226;-77
2023/08/24 07:19:17;;;;;;;5.07;4.40;;;;;;;;;;5092819;28;20195;-78
2023/08/24 07:21:45;;;;;;;6.13;4.57;;;;;;;;;;5092301;28;20248;-79
2023/08/24 07:24:12;;;;;;;5.55;3.90;;;;;;;;;;5092532;28;20218;-78
2023/08/24 07:26:42;;;;;;;4.55;4.00;;;;;;;;;;5092322;28;20198;-78
2023/08/24 07:29:10;;;;;;;7.65;4.18;;;;;;;;;;5092748;28;20190;-78
2023/08/24 07:31:38;;;;;;;5.57;3.75;;;;;;;;;;5092260;28;20572;-79
2023/08/24 07:34:05;;;;;;;6.55;4.30;;;;;;;;;;5092573;28;20203;-79
2023/08/24 07:36:32;;;;;;;6.07;3.97;;;;;;;;;;5092441;28;20214;-78
2023/08/24 07:38:59;;;;;;;6.15;4.10;;;;;;;;;;5092405;28;20623;-79
2023/08/24 07:41:26;;;;;;;5.10;4.43;;;;;;;;;;5092408;28;20745;-79
2023/08/24 07:43:54;;;;;;;6.97;4.55;;;;;;;;;;5092697;28;20273;-79
2023/08/24 07:46:22;;;;;;;7.80;4.70;;;;;;;;;;5091464;28;20202;-80
2023/08/24 07:48:50;;;;;;;10.20;5.18;;;;;;;;;;5091891;28;20234;-79
2023/08/24 07:51:17;;;;;;;5.45;4.43;;;;;;;;;;5092024;28;20281;-79
2023/08/24 07:53:44;;;;;;;7.55;4.70;;;;;;;;;;5092104;28;20257;-79
2023/08/24 07:56:11;;;;;;;5.65;4.45;;;;;;;;;;5091581;28;20190;-81
2023/08/24 07:58:38;;;;;;;6.60;4.55;;;;;;;;;;5091321;28;20285;-81
2023/08/24 08:01:06;;;;;;;9.15;4.53;;;;;;;;;;5090942;28;20229;-80
2023/08/24 08:03:35;;;;;;;5.18;4.57;;;;;;;;;;5091818;28;20266;-80
2023/08/24 08:06:03;;;;;;;5.70;5.00;;;;;;;;;;5091499;28;20194;-79
2023/08/24 08:08:30;;;;;;;10.60;5.38;;;;;;;;;;5092347;28;20199;-81
2023/08/24 08:11:01;;;;;;;5.35;4.80;;;;;;;;;;5091887;28;20643;-81
2023/08/24 08:13:29;;;;;;;7.50;4.75;;;;;;;;;;5091487;28;20639;-79
2023/08/24 08:16:03;;;;;;;5.38;4.88;;;;;;;;;;5092408;28;20230;-81
2023/08/24 08:18:30;;;;;;;6.40;5.13;;;;;;;;;;5091776;28;20294;-80
2023/08/24 08:20:58;;;;;;;6.25;5.18;;;;;;;;;;5091153;28;20225;-79
2023/08/24 08:23:25;;;;;;;6.95;5.00;;;;;;;;;;5091268;28;20273;-79
2023/08/24 08:25:53;;;;;;;9.57;5.22;;;;;;;;;;5091700;28;20327;-78
2023/08/24 08:28:20;;;;;;;5.63;5.05;;;;;;;;;;5091357;28;20289;-80
2023/08/24 08:30:49;;;;;;;8.00;5.40;;;;;;;;;;5091533;28;20219;-78
2023/08/24 08:33:17;;;;;;;6.40;5.53;;;;;;;;;;5091268;28;20199;-77
2023/08/24 08:35:45;;;;;;;9.88;6.68;;;;;;;;;;5091523;28;20285;-77
2023/08/24 08:38:13;;;;;;;7.45;6.40;;;;;;;;;;5091397;28;20214;-78
2023/08/24 08:40:41;;;;;;;8.82;6.00;;;;;;;;;;5091512;28;20281;-79
2023/08/24 08:43:08;;;;;;;10.43;6.25;;;;;;;;;;5091011;28;20572;-77
2023/08/24 08:45:35;;;;;;;9.90;6.13;;;;;;;;;;5091211;28;20200;-78
2023/08/24 08:48:04;;;;;;;8.73;6.28;;;;;;;;;;5091340;28;20190;-78
2023/08/24 08:50:33;;;;;;;11.73;6.00;;;;;;;;;;5091249;28;20195;-80
2023/08/24 08:53:00;;;;;;;10.60;6.68;;;;;;;;;;5090827;28;20565;-80
2023/08/24 08:55:30;;;;;;;7.45;6.10;;;;;;;;;;5091261;28;20277;-79
2023/08/24 08:57:58;;;;;;;7.90;6.03;;;;;;;;;;5090476;28;20659;-79
2023/08/24 09:00:26;;;;;;;6.43;5.80;;;;;;;;;;5090636;28;20198;-79
2023/08/24 09:02:55;;;;;;;12.45;6.82;;;;;;;;;;5090759;28;20285;-79
2023/08/24 09:05:25;;;;;;;6.38;5.68;;;;;;;;;;5091170;28;20289;-78
2023/08/24 09:07:55;;;;;;;7.93;6.28;;;;;;;;;;5091119;28;20198;-79
2023/08/24 09:10:22;;;;;;;7.35;6.65;;;;;;;;;;5090932;28;20230;-79
2023/08/24 09:12:51;;;;;;;8.65;6.32;;;;;;;;;;5091919;28;20202;-79
2023/08/24 09:15:26;;;;;;;8.20;6.65;;;;;;;;;;5094727;28;20549;-79
2023/08/24 09:17:53;;;;;;;8.00;5.60;;;;;;;;;;5094580;28;20208;-78
2023/08/24 09:20:21;;;;;;;10.27;6.40;;;;;;;;;;5094372;28;20718;-78
2023/08/24 09:22:48;;;;;;;9.30;8.23;;;;;;;;;;5094487;28;20722;-78
2023/08/24 09:25:15;;;;;;;12.98;9.07;;;;;;;;;;5095001;28;20285;-78
2023/08/24 09:27:42;;;;;;;13.15;9.40;;;;;;;;;;5095263;28;20221;-79
2023/08/24 09:30:13;;;;;;;14.88;11.10;;;;;;;;;;5094527;28;20200;-79
2023/08/24 09:32:40;;;;;;;17.23;10.40;;;;;;;;;;5094642;28;20199;-79
2023/08/24 09:35:09;;;;;;;16.02;11.40;;;;;;;;;;5094788;28;20612;-78
2023/08/24 09:37:37;;;;;;;13.20;10.25;;;;;;;;;;5094836;28;20191;-78
2023/08/24 09:40:07;;;;;;;14.23;10.45;;;;;;;;;;5094797;28;20224;-79
2023/08/24 09:42:40;;;;;;;15.25;10.75;;;;;;;;;;5092604;28;20221;-79
2023/08/24 09:45:09;;;;;;;15.65;11.40;;;;;;;;;;5094347;28;20605;-78
2023/08/24 09:47:38;;;;;;;15.88;10.80;;;;;;;;;;5093948;28;20191;-79
2023/08/24 09:50:06;;;;;;;14.43;11.05;;;;;;;;;;5101182;28;20229;-78
2023/08/24 09:52:34;;;;;;;19.77;12.65;;;;;;;;;;5114615;28;20213;-79
2023/08/24 09:55:05;;;;;;;17.45;11.70;;;;;;;;;;5113945;28;20264;-79
2023/08/24 09:57:35;;;;;;;15.48;11.40;;;;;;;;;;5073870;28;20202;-78
2023/08/24 10:00:06;;;;;;;13.32;10.30;;;;;;;;;;5081580;28;20226;-77
2023/08/24 10:02:37;;;;;;;13.60;9.85;;;;;;;;;;5094840;28;20267;-79
2023/08/24 10:05:07;;;;;;;13.45;9.75;;;;;;;;;;5093995;28;20797;-79
2023/08/24 10:07:34;;;;;;;15.95;9.60;;;;;;;;;;5104042;28;20293;-80
2023/08/24 10:10:04;;;;;;;13.02;9.70;;;;;;;;;;5114004;28;20681;-79
2023/08/24 10:12:34;;;;;;;17.88;12.02;;;;;;;;;;5105549;28;20190;-78
2023/08/24 10:15:03;;;;;;;18.30;13.35;;;;;;;;;;5092867;28;20199;-78
2023/08/24 10:17:31;;;;;;;17.75;12.40;;;;;;;;;;5090083;28;20195;-77
2023/08/24 10:20:01;;;;;;;18.48;14.55;;;;;;;;;;5088261;28;20226;-80
2023/08/24 10:22:30;;;;;;;24.27;17.02;;;;;;;;;;5092646;28;20619;-80
2023/08/24 10:24:58;;;;;;;25.83;15.73;;;;;;;;;;5091886;28;20302;-79
2023/08/24 10:27:25;;;;;;;24.75;17.15;;;;;;;;;;5091285;28;20247;-78
2023/08/24 10:29:53;;;;;;;29.98;20.92;;;;;;;;;;5094083;28;20233;-79
2023/08/24 10:32:21;;;;;;;32.28;20.80;;;;;;;;;;5088346;28;20237;-80
2023/08/24 10:34:49;;;;;;;22.48;15.45;;;;;;;;;;5092073;28;20286;-80
2023/08/24 10:37:16;;;;;;;20.40;14.20;;;;;;;;;;5091019;28;20206;-80
2023/08/24 10:39:49;;;;;;;21.15;13.00;;;;;;;;;;5115547;27;20274;-79
2023/08/24 10:42:16;;;;;;;20.65;13.70;;;;;;;;;;5085717;28;20633;-81
2023/08/24 10:44:45;;;;;;;26.50;18.40;;;;;;;;;;5085022;28;20253;-79
2023/08/24 10:47:14;;;;;;;24.00;15.60;;;;;;;;;;5094195;28;20207;-80
2023/08/24 10:49:41;;;;;;;21.77;14.48;;;;;;;;;;5094994;28;20229;-80
2023/08/24 10:52:21;;;;;;;14.00;9.38;;;;;;;;;;5094184;28;20602;-79
2023/08/24 10:54:50;;;;;;;10.30;7.65;;;;;;;;;;5093577;28;20237;-79
2023/08/24 10:57:21;;;;;;;12.93;9.05;;;;;;;;;;5094197;28;20202;-80
2023/08/24 11:00:00;;;;;;;14.82;11.00;;;;;;;;;;5113878;28;20243;-79
2023/08/24 11:02:27;;;;;;;17.58;12.68;;;;;;;;;;5100541;28;20200;-81
2023/08/24 11:05:16;;;;;;;23.23;15.82;;;;;;;;;;5097082;28;20222;-80
2023/08/24 11:07:51;;;;;;;23.15;16.05;;;;;;;;;;5092749;28;20214;-81
2023/08/24 11:10:20;;;;;;;22.00;14.40;;;;;;;;;;5094289;28;20198;-77
2023/08/24 11:13:06;;;;;;;16.88;13.20;;;;;;;;;;5092716;28;20548;-78
2023/08/24 11:15:34;;;;;;;11.55;8.48;;;;;;;;;;5093115;28;20204;-79
2023/08/24 11:18:14;;;;;;;13.68;8.85;;;;;;;;;;5092475;28;20659;-79
2023/08/24 11:20:43;;;;;;;8.20;6.55;;;;;;;;;;5092576;28;20198;-78
2023/08/24 11:23:11;;;;;;;6.70;5.63;;;;;;;;;;5092328;28;20225;-78
2023/08/24 11:25:39;;;;;;;7.25;5.22;;;;;;;;;;5089807;28;20772;-78
2023/08/24 11:28:07;;;;;;;6.57;5.05;;;;;;;;;;5090475;28;20273;-77
2023/08/24 11:30:34;;;;;;;9.15;6.18;;;;;;;;;;5093840;28;20213;-78
2023/08/24 11:33:02;;;;;;;10.75;8.00;;;;;;;;;;5079177;28;20298;-78
2023/08/24 11:35:29;;;;;;;11.55;9.02;;;;;;;;;;5071759;28;20253;-78
2023/08/24 11:37:57;;;;;;;14.00;8.98;;;;;;;;;;5073545;28;20281;-78
2023/08/24 11:40:26;;;;;;;9.48;7.60;;;;;;;;;;5073666;28;20327;-78
2023/08/24 11:42:56;;;;;;;10.35;7.50;;;;;;;;;;5087096;28;20187;-79
2023/08/24 11:45:24;;;;;;;9.88;6.15;;;;;;;;;;5092810;28;20246;-76
2023/08/24 11:47:51;;;;;;;11.35;8.05;;;;;;;;;;5091712;28;20225;-77
2023/08/24 11:50:18;;;;;;;12.27;8.93;;;;;;;;;;5090178;28;20194;-77
2023/08/24 11:52:45;;;;;;;11.52;9.57;;;;;;;;;;5087278;28;20286;-78
2023/08/24 11:55:13;;;;;;;15.95;10.48;;;;;;;;;;5085389;28;20226;-78
2023/08/24 11:57:40;;;;;;;12.20;9.68;;;;;;;;;;5088350;28;20234;-77
2023/08/24 12:00:13;;;;;;;11.77;7.85;;;;;;;;;;5091648;28;20765;-78
2023/08/24 12:02:41;;;;;;;9.98;6.70;;;;;;;;;;5092031;28;20198;-78
2023/08/24 12:05:10;;;;;;;8.95;6.25;;;;;;;;;;5088103;28;20237;-78
2023/08/24 12:07:37;;;;;;;8.63;5.13;;;;;;;;;;5084517;28;20249;-78
2023/08/24 12:10:05;;;;;;;6.22;4.10;;;;;;;;;;5087469;28;20244;-80
2023/08/24 12:12:32;;;;;;;4.72;3.50;;;;;;;;;;5089992;28;20620;-79
2023/08/24 12:14:59;;;;;;;5.47;4.03;;;;;;;;;;5092489;28;20198;-80
2023/08/24 12:17:28;;;;;;;5.18;3.55;;;;;;;;;;5088448;28;20214;-79
2023/08/24 12:19:59;;;;;;;5.00;3.45;;;;;;;;;;5087703;28;20191;-79
2023/08/24 12:22:27;;;;;;;5.53;3.30;;;;;;;;;;5087566;28;20191;-79
2023/08/24 12:24:57;;;;;;;5.00;4.20;;;;;;;;;;5086651;28;20313;-80
2023/08/24 12:27:25;;;;;;;5.78;4.05;;;;;;;;;;5088006;28;20195;-79
2023/08/24 12:29:53;;;;;;;4.30;3.90;;;;;;;;;;5088866;28;20237;-79
2023/08/24 12:32:22;;;;;;;4.15;3.63;;;;;;;;;;5091833;28;20206;-79
2023/08/24 12:34:51;;;;;;;4.00;3.63;;;;;;;;;;5082267;28;20245;-80
2023/08/24 12:37:19;;;;;;;5.10;3.75;;;;;;;;;;5089507;28;20766;-79
2023/08/24 12:39:46;;;;;;;4.30;3.40;;;;;;;;;;5089073;28;20225;-79
2023/08/24 12:42:13;;;;;;;5.28;3.40;;;;;;;;;;5090493;28;20191;-78
2023/08/24 12:44:40;;;;;;;5.57;3.42;;;;;;;;;;5091035;28;20222;-78
2023/08/24 12:47:08;;;;;;;6.35;3.60;;;;;;;;;;5091173;28;20213;-79
2023/08/24 12:49:35;;;;;;;4.38;3.60;;;;;;;;;;5079038;28;20226;-79
2023/08/24 12:52:03;;;;;;;5.25;3.53;;;;;;;;;;5080894;28;20254;-78
2023/08/24 12:54:31;;;;;;;5.65;3.42;;;;;;;;;;5089061;28;20237;-77
2023/08/24 12:56:58;;;;;;;5.03;3.58;;;;;;;;;;5084383;28;20237;-78
2023/08/24 12:59:25;;;;;;;5.85;3.42;;;;;;;;;;5090703;28;20315;-78
2023/08/24 13:01:52;;;;;;;3.42;3.13;;;;;;;;;;5091034;28;20634;-78
2023/08/24 13:04:19;;;;;;;3.60;3.15;;;;;;;;;;5089678;28;20694;-78
2023/08/24 13:06:47;;;;;;;4.93;3.47;;;;;;;;;;5090222;28;20263;-79
2023/08/24 13:09:16;;;;;;;4.80;3.20;;;;;;;;;;5090610;28;20286;-78
2023/08/24 13:11:44;;;;;;;3.55;3.20;;;;;;;;;;5090233;28;20275;-78
2023/08/24 13:14:12;;;;;;;5.72;3.50;;;;;;;;;;5093248;28;20237;-79
2023/08/24 13:16:48;;;;;;;3.72;3.42;;;;;;;;;;5091773;28;20195;-79
2023/08/24 13:19:15;;;;;;;6.25;3.50;;;;;;;;;;5090591;28;20289;-79
2023/08/24 13:21:42;;;;;;;3.83;3.00;;;;;;;;;;5090496;28;20287;-79
2023/08/24 13:24:10;;;;;;;4.90;3.50;;;;;;;;;;5080347;28;20259;-80
2023/08/24 13:26:38;;;;;;;3.72;3.28;;;;;;;;;;5082739;28;20198;-79
2023/08/24 13:29:05;;;;;;;4.13;3.60;;;;;;;;;;5079395;28;20286;-80
2023/08/24 13:31:33;;;;;;;4.50;3.30;;;;;;;;;;5084722;28;20233;-79
2023/08/24 13:34:00;;;;;;;3.63;3.17;;;;;;;;;;5083509;28;20251;-78
2023/08/24 13:36:27;;;;;;;3.90;3.30;;;;;;;;;;5085473;28;20198;-79
2023/08/24 13:38:54;;;;;;;4.55;3.17;;;;;;;;;;5086284;28;20227;-78
2023/08/24 13:41:21;;;;;;;3.35;2.97;;;;;;;;;;5085620;28;20241;-79
2023/08/24 13:43:50;;;;;;;5.85;3.72;;;;;;;;;;5087381;28;20277;-80
2023/08/24 13:46:18;;;;;;;5.25;3.03;;;;;;;;;;5088501;28;20324;-80
2023/08/24 13:48:45;;;;;;;6.78;3.33;;;;;;;;;;5085821;28;20201;-81
2023/08/24 13:51:12;;;;;;;5.82;3.63;;;;;;;;;;5094813;28;20241;-89
2023/08/24 13:53:39;;;;;;;3.90;3.13;;;;;;;;;;5090953;28;20241;-87
2023/08/24 13:56:07;;;;;;;3.67;3.10;;;;;;;;;;5090091;28;20229;-89
2023/08/24 13:58:34;;;;;;;4.57;2.90;;;;;;;;;;5091103;28;20231;-88
2023/08/24 14:01:03;;;;;;;4.45;2.90;;;;;;;;;;5094724;28;20288;-86
2023/08/24 14:03:31;;;;;;;3.67;3.28;;;;;;;;;;5094916;28;20190;-92
2023/08/24 14:05:58;;;;;;;5.28;3.40;;;;;;;;;;5096629;28;20210;-92
2023/08/24 14:08:25;;;;;;;4.75;4.45;;;;;;;;;;5096706;28;20193;-93
2023/08/24 14:10:53;;;;;;;4.55;3.22;;;;;;;;;;5097463;28;20701;-92
2023/08/24 14:13:20;;;;;;;6.47;3.85;;;;;;;;;;5097288;28;20631;-94
2023/08/24 14:15:49;;;;;;;3.65;3.35;;;;;;;;;;5096867;28;20877;-93
2023/08/24 14:18:18;;;;;;;4.05;3.00;;;;;;;;;;5089937;28;20197;-94
2023/08/24 14:20:45;;;;;;;4.38;3.20;;;;;;;;;;5095041;28;20288;-94
2023/08/24 14:23:13;;;;;;;4.13;2.80;;;;;;;;;;5090917;28;20289;-93
2023/08/24 14:25:40;;;;;;;5.72;3.22;;;;;;;;;;5076055;28;20655;-94
2023/08/24 14:28:08;;;;;;;4.55;3.05;;;;;;;;;;5093978;28;20198;-96
2023/08/24 14:30:35;;;;;;;4.55;3.17;;;;;;;;;;5095867;28;20247;-93
2023/08/24 14:33:02;;;;;;;5.32;3.38;;;;;;;;;;5095974;28;20202;-94
2023/08/24 14:35:32;;;;;;;4.82;3.28;;;;;;;;;;5096982;28;20574;-94
2023/08/24 14:37:59;;;;;;;4.88;3.10;;;;;;;;;;5089832;28;20668;-94
2023/08/24 14:40:27;;;;;;;6.00;3.70;;;;;;;;;;5097919;28;20194;-94
2023/08/24 14:42:54;;;;;;;6.85;3.53;;;;;;;;;;5096955;28;20604;-89